Fire Weather Observation
Issued by NWS Grand Junction, CO

Home | Current Version | Previous Version | Graphics & Text | Print | Product List | Glossary On
Versions: 1 2 3 4 5 6 7 8 9 10 11 12 13 14 15 16 17 18 19 20 21 22 23 24 25 26 27 28 29 30 31 32 33 34 35
000
SHUS65 KGJT 232014
FWOGJT

DAILY FIRE WEATHER OBSERVATION
NATIONAL WEATHER SERVICE GRAND JUNCTION CO
212 PM MDT SAT APR 23 2016

STATE OF THE WEATHER (W)               3
DRY BULB TEMPERATURE                   61   DEGREES FAHRENHEIT
RELATIVE HUMIDITY (RH)                 35   PERCENT
LIGHTNING ACTIVITY LEVEL
  (LAL - MIDNIGHT TO 2 PM)             1
WIND DIRECTION                         270  DEGREES (C IF CALM)
WIND SPEED                             31   MPH
MAX TEMP (2 PM - 2 PM)                 80   DEGREES FAHRENHEIT
MIN TEMP (2 PM - 2 PM)                 55   DEGREES FAHRENHEIT
MAX RH (2 PM - 2 PM)                   35   PERCENT
MIN RH (2 PM - 2 PM)                   11   PERCENT
PCPN DURATION                          0.0  HOURS
PCPN AMT (2 PM - 2 PM)                 0.0  INCHES
LAL (2 PM - 2 PM)                      1

$$

METAR KGJT 231953Z 28027G38KT 10SM BKN100 16/01 A2975 RMK AO2 PK
      WND 26041/1937 WSHFT 1852 PRESRR SLP021 T01610006



USA.gov is the U.S. government's official web portal to all federal, state and local government web resources and services.